This is the latest recevied weather packets stored in our database for station/object W1HS. If no packets are shown the sender has not sent any weather packets the latest 1 day(s).
| Time | Temp. | Humidity | Pressure | Rain* | Wind** | Luminosity | Snow |
|---|---|---|---|---|---|---|---|
| 1778042178 | 16.67° C | 73% | 989.2 hPa | 0 mm | - | 0 W/m² | - |
| 1778041578 | 17.22° C | 73% | 989.4 hPa | 0 mm | - | 0 W/m² | - |
| 1778040979 | 17.22° C | 73% | 989.2 hPa | 0 mm | - | 0 W/m² | - |
| 1778039779 | 17.22° C | 73% | 988.9 hPa | 0 mm | - | 0 W/m² | - |
| 1778039184 | 17.22° C | 73% | 989.1 hPa | 0 mm | - | 0 W/m² | - |
| 1778037979 | 17.78° C | 73% | 989.2 hPa | 0 mm | - | 0 W/m² | - |
| 1778037450 | 17.78° C | 73% | 989.1 hPa | 0 mm | - | 0 W/m² | - |
| 1778037199 | 17.78° C | 73% | 989.1 hPa | 0 mm | - | 0 W/m² | - |
| 1778036599 | 17.78° C | 73% | 989 hPa | 0 mm | - | 0 W/m² | - |
| 1778036000 | 17.78° C | 73% | 988.8 hPa | 0 mm | - | 0 W/m² | - |
| 1778035400 | 17.78° C | 73% | 988.9 hPa | 0 mm | - | 0 W/m² | - |
| 1778034799 | 17.78° C | 73% | 988.8 hPa | 0 mm | - | 0 W/m² | - |
| 1778034202 | 17.78° C | 73% | 988.8 hPa | 0 mm | - | 0 W/m² | - |
| 1778033599 | 17.78° C | 73% | 988.8 hPa | 0 mm | - | 0 W/m² | - |
| 1778032398 | 17.22° C | 74% | 988.4 hPa | 0 mm | - | 0 W/m² | - |
| 1778031798 | 17.22° C | 75% | 988.3 hPa | 0 mm | - | 0 W/m² | - |
| 1778031201 | 17.22° C | 76% | 988.3 hPa | 0 mm | - | 0 W/m² | - |
| 1778030599 | 17.78° C | 74% | 988.1 hPa | 0 mm | - | 0 W/m² | - |
| 1778029999 | 17.78° C | 73% | 988 hPa | 0 mm | - | 0 W/m² | - |
| 1778029398 | 17.78° C | 72% | 987.9 hPa | 0 mm | - | 0 W/m² | - |
| 1778028798 | 17.78° C | 72% | 987.9 hPa | 0 mm | - | 0 W/m² | - |
| 1778026998 | 17.78° C | 74% | 987.8 hPa | 0 mm | - | 0 W/m² | - |
| 1778024599 | 18.33° C | 73% | 987.3 hPa | 0 mm | - | 0 W/m² | - |
| 1778021001 | 17.78° C | 74% | 986.6 hPa | 0 mm | - | 18 W/m² | - |
| 1778018599 | 19.44° C | 65% | 985.9 hPa | 0 mm | - | 11 W/m² | - |
* Rain latest hour (hover to see other rain measurements)
** Current wind speed in m/s (hover to see current wind gust speed)